createdAt,value
2022-12-13T00:00:58.345Z,37.58
2022-12-13T00:03:25.230Z,35.50
2022-12-13T00:05:52.110Z,41.55
2022-12-13T00:08:19.153Z,40.75
2022-12-13T00:10:46.051Z,35.63
2022-12-13T00:13:12.926Z,36.30
2022-12-13T00:15:39.831Z,40.03
2022-12-13T00:18:06.737Z,36.92
2022-12-13T00:20:33.642Z,38.20
2022-12-13T00:23:00.516Z,37.67
2022-12-13T00:25:27.414Z,42.72
2022-12-13T00:27:54.315Z,37.88
2022-12-13T00:30:21.219Z,37.75
2022-12-13T00:32:48.123Z,37.65
2022-12-13T00:35:15.464Z,35.90
2022-12-13T00:37:42.496Z,40.17
2022-12-13T00:40:09.408Z,41.30
2022-12-13T00:42:36.614Z,38.28
2022-12-13T00:45:03.528Z,35.67
2022-12-13T00:47:30.401Z,37.55
2022-12-13T00:49:57.296Z,36.88
2022-12-13T00:52:24.248Z,39.10
2022-12-13T00:54:51.147Z,39.40
2022-12-13T00:57:18.044Z,36.40
2022-12-13T00:59:44.995Z,40.90
2022-12-13T01:02:11.898Z,39.97
2022-12-13T01:04:38.811Z,44.75
2022-12-13T01:07:05.731Z,36.08
2022-12-13T01:09:32.631Z,37.67
2022-12-13T01:11:59.540Z,38.00
2022-12-13T01:14:26.448Z,40.53
2022-12-13T01:16:53.458Z,42.28
2022-12-13T01:19:20.544Z,40.50
2022-12-13T01:21:47.436Z,36.83
2022-12-13T01:24:14.333Z,42.05
2022-12-13T01:26:41.226Z,40.25
2022-12-13T01:29:08.105Z,40.47
2022-12-13T01:31:35.012Z,38.90
2022-12-13T01:34:01.897Z,38.10
2022-12-13T01:36:28.780Z,38.15
2022-12-13T01:38:58.095Z,39.67
2022-12-13T01:41:27.216Z,41.63
2022-12-13T01:43:54.454Z,35.58
2022-12-13T01:46:21.391Z,41.13
2022-12-13T01:48:48.325Z,38.83
2022-12-13T01:51:15.239Z,39.08
2022-12-13T01:53:42.157Z,42.17
2022-12-13T01:56:09.066Z,44.13
2022-12-13T01:58:35.946Z,39.00
2022-12-13T02:01:02.874Z,37.45
2022-12-13T02:03:29.855Z,42.92
2022-12-13T02:05:56.813Z,38.00
2022-12-13T02:08:27.786Z,38.97
2022-12-13T02:10:54.781Z,40.47
2022-12-13T02:13:21.671Z,41.08
2022-12-13T02:15:48.594Z,39.63
2022-12-13T02:18:15.506Z,41.08
2022-12-13T02:20:42.414Z,38.83
2022-12-13T02:23:09.288Z,41.33
2022-12-13T02:25:36.230Z,39.80
2022-12-13T02:28:03.325Z,39.13
2022-12-13T02:30:50.228Z,43.45
2022-12-13T02:33:21.615Z,41.13
2022-12-13T02:35:49.023Z,44.75
2022-12-13T02:38:24.412Z,36.20
2022-12-13T02:40:51.659Z,40.47
2022-12-13T02:43:21.318Z,40.85
2022-12-13T02:45:48.534Z,39.83
2022-12-13T02:48:15.454Z,40.78
2022-12-13T02:50:42.344Z,44.30
2022-12-13T02:53:09.294Z,39.65
2022-12-13T02:55:36.190Z,40.45
2022-12-13T02:58:03.085Z,38.45
2022-12-13T03:00:29.981Z,43.92
2022-12-13T03:02:57.296Z,40.75
2022-12-13T03:05:24.300Z,40.58
2022-12-13T03:07:51.241Z,38.15
2022-12-13T03:10:18.186Z,37.40
2022-12-13T03:12:45.172Z,40.80
2022-12-13T03:15:12.287Z,45.90
2022-12-13T03:17:39.359Z,44.00
2022-12-13T03:20:22.221Z,41.38
2022-12-13T03:22:50.321Z,43.22
2022-12-13T03:25:31.825Z,39.72
2022-12-13T03:28:01.275Z,40.17
2022-12-13T03:30:29.490Z,36.72
2022-12-13T03:32:56.434Z,42.72
2022-12-13T03:35:23.406Z,46.25
2022-12-13T03:37:50.325Z,42.90
2022-12-13T03:40:17.258Z,40.88
2022-12-13T03:42:44.140Z,39.85
2022-12-13T03:45:11.261Z,43.95
2022-12-13T03:47:38.142Z,41.40
2022-12-13T03:50:25.626Z,41.97
2022-12-13T03:52:51.905Z,44.40
2022-12-13T03:55:18.796Z,42.83
2022-12-13T03:57:45.676Z,40.85
2022-12-13T04:00:12.585Z,40.97
2022-12-13T04:02:39.549Z,45.70
2022-12-13T04:05:06.592Z,43.85
2022-12-13T04:07:34.649Z,44.92
2022-12-13T04:10:01.737Z,44.38
2022-12-13T04:12:28.624Z,41.55
2022-12-13T04:14:55.571Z,40.65
2022-12-13T04:17:22.473Z,43.42
2022-12-13T04:19:49.923Z,43.92
2022-12-13T04:22:23.297Z,43.10
2022-12-13T04:24:51.747Z,42.45
2022-12-13T04:27:18.626Z,43.20
2022-12-13T04:29:45.538Z,40.00
2022-12-13T04:32:26.855Z,40.03
2022-12-13T04:35:12.380Z,40.20
2022-12-13T04:37:39.327Z,39.25
2022-12-13T04:40:10.379Z,41.42
2022-12-13T04:42:37.331Z,43.50
2022-12-13T04:45:04.234Z,45.85
2022-12-13T04:47:31.158Z,45.88
2022-12-13T04:49:58.077Z,42.22
2022-12-13T04:52:24.965Z,43.40
2022-12-13T04:54:55.647Z,40.95
2022-12-13T04:57:22.928Z,45.17
2022-12-13T04:59:56.296Z,42.95
2022-12-13T05:02:24.383Z,44.53
2022-12-13T05:04:54.418Z,47.28
2022-12-13T05:07:21.520Z,40.50
2022-12-13T05:09:48.418Z,46.30
2022-12-13T05:12:22.800Z,41.55
2022-12-13T05:14:50.597Z,42.38
2022-12-13T05:17:26.717Z,44.45
2022-12-13T05:19:53.622Z,43.47
2022-12-13T05:22:21.300Z,48.58
2022-12-13T05:24:48.397Z,42.97
2022-12-13T05:27:24.484Z,43.40
2022-12-13T05:30:02.325Z,42.72
2022-12-13T05:32:30.925Z,44.03
2022-12-13T05:34:57.836Z,46.55
2022-12-13T05:37:24.735Z,42.85
2022-12-13T05:39:51.633Z,43.20
2022-12-13T05:42:18.567Z,44.15
2022-12-13T05:44:45.496Z,47.58
2022-12-13T05:47:12.458Z,40.47
2022-12-13T05:49:39.678Z,45.75
2022-12-13T05:52:06.741Z,45.15
2022-12-13T05:54:33.616Z,43.55
2022-12-13T05:57:00.509Z,42.33
2022-12-13T05:59:27.426Z,49.35
2022-12-13T06:01:54.405Z,43.35
2022-12-13T06:04:22.518Z,43.83
2022-12-13T06:06:51.088Z,47.80
2022-12-13T06:09:18.331Z,43.47
2022-12-13T06:11:45.286Z,45.90
2022-12-13T06:14:22.233Z,42.72
2022-12-13T06:16:49.932Z,41.30
2022-12-13T06:19:16.893Z,43.25
2022-12-13T06:21:46.338Z,42.90
2022-12-13T06:24:13.497Z,44.03
2022-12-13T06:26:40.397Z,46.45
2022-12-13T06:29:07.285Z,43.10
2022-12-13T06:31:34.196Z,43.45
2022-12-13T06:34:01.074Z,45.00
2022-12-13T06:36:41.936Z,46.13
2022-12-13T06:39:08.824Z,41.47
2022-12-13T06:41:35.736Z,48.03
2022-12-13T06:44:02.631Z,47.03
2022-12-13T06:46:29.619Z,44.25
2022-12-13T06:48:56.606Z,45.63
2022-12-13T06:51:33.118Z,45.40
2022-12-13T06:54:00.825Z,47.58
2022-12-13T06:56:27.911Z,45.45
2022-12-13T06:59:01.571Z,41.72
2022-12-13T07:01:29.220Z,21.63
2022-12-13T07:04:04.696Z,36.13
2022-12-13T07:06:31.624Z,44.25
2022-12-13T07:08:58.527Z,43.97
2022-12-13T07:11:25.449Z,41.00
2022-12-13T07:13:52.342Z,41.75
2022-12-13T07:16:19.363Z,42.63
2022-12-13T07:18:46.285Z,42.55
2022-12-13T07:21:21.319Z,39.45
2022-12-13T07:23:54.996Z,41.08
2022-12-13T07:26:22.511Z,40.92
2022-12-13T07:28:54.822Z,41.28
2022-12-13T07:31:22.397Z,41.83
2022-12-13T07:33:49.341Z,47.88
2022-12-13T07:36:20.598Z,37.67
2022-12-13T07:41:14.521Z,46.40
2022-12-13T07:43:54.889Z,35.78
2022-12-13T07:46:32.094Z,38.83
2022-12-13T07:49:01.485Z,36.40
2022-12-13T07:51:28.921Z,36.85
2022-12-13T07:53:55.861Z,42.70
2022-12-13T07:56:22.781Z,44.53
2022-12-13T07:58:49.723Z,41.40
2022-12-13T08:01:16.634Z,42.72
2022-12-13T08:03:43.545Z,38.88
2022-12-13T08:06:10.432Z,40.97
2022-12-13T08:08:37.353Z,38.85
2022-12-13T08:11:04.315Z,51.70
2022-12-13T08:13:31.205Z,40.40
2022-12-13T08:15:58.120Z,45.22
2022-12-13T08:18:25.134Z,44.63
2022-12-13T08:20:52.024Z,43.50
2022-12-13T08:23:19.211Z,44.40
2022-12-13T08:25:46.320Z,44.78
2022-12-13T08:28:13.228Z,40.00
2022-12-13T08:30:40.122Z,38.15
2022-12-13T08:33:07.012Z,36.33
2022-12-13T08:35:34.837Z,40.33
2022-12-13T08:38:02.060Z,37.88
2022-12-13T08:40:28.993Z,41.33
2022-12-13T08:42:55.893Z,40.20
2022-12-13T08:45:22.843Z,40.75
2022-12-13T08:47:49.954Z,37.42
2022-12-13T08:50:16.831Z,35.08
2022-12-13T08:52:43.739Z,37.03
2022-12-13T08:55:10.645Z,36.67
2022-12-13T08:57:37.562Z,37.30
2022-12-13T09:00:04.471Z,35.42
2022-12-13T09:02:31.456Z,33.53
2022-12-13T09:05:05.471Z,33.65
2022-12-13T09:07:32.399Z,34.67
2022-12-13T09:09:59.293Z,34.05
2022-12-13T09:12:46.187Z,34.65
2022-12-13T09:15:21.847Z,35.47
2022-12-13T09:17:52.218Z,34.15
2022-12-13T09:20:29.005Z,32.83
2022-12-13T09:23:01.936Z,32.88
2022-12-13T09:25:29.494Z,32.17
2022-12-13T09:28:04.464Z,29.70
2022-12-13T09:30:31.767Z,31.77
2022-12-13T09:32:59.004Z,29.10
2022-12-13T09:35:45.882Z,27.02
2022-12-13T09:38:12.789Z,33.75
2022-12-13T09:40:40.768Z,29.15
2022-12-13T09:43:12.440Z,27.20
2022-12-13T09:45:42.913Z,27.23
2022-12-13T09:48:11.446Z,24.90
2022-12-13T09:50:46.374Z,29.52
2022-12-13T09:53:21.949Z,28.80
2022-12-13T09:55:49.102Z,27.15
2022-12-13T09:58:16.012Z,28.75
2022-12-13T10:00:42.964Z,26.52
2022-12-13T10:03:10.829Z,25.02
2022-12-13T10:05:39.897Z,24.13
2022-12-13T10:08:07.346Z,23.48
2022-12-13T10:10:34.275Z,25.75
2022-12-13T10:13:01.199Z,25.55
2022-12-13T10:15:28.113Z,25.52
2022-12-13T10:17:56.011Z,26.48
2022-12-13T10:20:23.120Z,24.35
2022-12-13T10:23:15.132Z,24.45
2022-12-13T10:25:37.113Z,25.00
2022-12-13T10:28:04.069Z,24.70
2022-12-13T10:30:30.977Z,26.88
2022-12-13T10:32:57.916Z,23.83
2022-12-13T10:35:24.875Z,25.08
2022-12-13T10:37:51.776Z,27.65
2022-12-13T10:40:32.049Z,26.05
2022-12-13T10:42:59.972Z,27.15
2022-12-13T10:45:26.843Z,24.67
2022-12-13T10:47:53.757Z,24.38
2022-12-13T10:50:20.709Z,27.77
2022-12-13T10:52:47.607Z,28.10
2022-12-13T10:55:23.780Z,26.08
2022-12-13T10:57:50.952Z,24.83
2022-12-13T11:00:17.828Z,23.58
2022-12-13T11:02:44.749Z,24.98
2022-12-13T11:05:11.691Z,25.23
2022-12-13T11:07:38.572Z,24.92
2022-12-13T11:10:05.719Z,25.55
2022-12-13T11:12:41.572Z,26.08
2022-12-13T11:15:08.465Z,22.88
2022-12-13T11:17:35.370Z,26.75
2022-12-13T11:20:02.275Z,26.30
2022-12-13T11:22:29.184Z,26.83
2022-12-13T11:24:56.084Z,24.40
2022-12-13T11:27:22.981Z,22.80
2022-12-13T11:29:49.869Z,22.90
2022-12-13T11:32:22.762Z,24.17
2022-12-13T11:34:50.223Z,22.27
2022-12-13T11:37:17.112Z,25.30
2022-12-13T11:39:44.052Z,24.38
2022-12-13T11:42:10.943Z,23.23
2022-12-13T11:44:39.187Z,25.00
2022-12-13T11:47:08.712Z,23.83
2022-12-13T11:49:35.614Z,25.98
2022-12-13T11:52:02.521Z,27.85
2022-12-13T11:54:32.400Z,26.42
2022-12-13T11:57:00.574Z,25.33
2022-12-13T11:59:28.312Z,24.92
2022-12-13T12:01:55.442Z,26.95
2022-12-13T12:04:22.362Z,27.95
2022-12-13T12:06:49.261Z,26.30
2022-12-13T12:09:16.184Z,26.40
2022-12-13T12:11:43.116Z,25.10
2022-12-13T12:14:10.030Z,25.13
2022-12-13T12:16:37.026Z,25.52
2022-12-13T12:19:04.028Z,23.67
2022-12-13T12:21:56.512Z,25.77
2022-12-13T12:24:18.065Z,26.08
2022-12-13T12:26:44.965Z,24.73
2022-12-13T12:29:12.392Z,24.52
2022-12-13T12:31:50.654Z,25.70
2022-12-13T12:34:18.265Z,23.73
2022-12-13T12:36:57.433Z,25.58
2022-12-13T12:39:29.721Z,24.10
2022-12-13T12:42:00.296Z,23.67
2022-12-13T12:44:30.513Z,23.73
2022-12-13T12:47:09.232Z,22.73
2022-12-13T12:49:45.022Z,23.33
2022-12-13T12:52:11.931Z,25.73
2022-12-13T12:54:38.842Z,22.58
2022-12-13T12:57:05.743Z,25.55
2022-12-13T12:59:32.697Z,23.40
2022-12-13T13:01:59.668Z,27.00
2022-12-13T13:04:26.612Z,23.45
2022-12-13T13:06:53.506Z,23.90
2022-12-13T13:09:28.570Z,26.20
2022-12-13T13:11:57.482Z,24.60
2022-12-13T13:14:24.680Z,25.67
2022-12-13T13:16:51.549Z,24.95
2022-12-13T13:19:25.367Z,25.98
2022-12-13T13:21:52.746Z,26.40
2022-12-13T13:24:19.696Z,27.98
2022-12-13T13:26:46.615Z,26.63
2022-12-13T13:29:13.775Z,28.88
2022-12-13T13:31:40.670Z,26.80
2022-12-13T13:34:07.590Z,26.35
2022-12-13T13:36:34.495Z,24.90
2022-12-13T13:39:01.995Z,28.15
2022-12-13T13:41:29.014Z,27.42
2022-12-13T13:43:55.934Z,28.80
2022-12-13T13:46:22.858Z,29.95
2022-12-13T13:48:49.804Z,26.83
2022-12-13T13:51:25.419Z,28.45
2022-12-13T13:53:52.343Z,25.05
2022-12-13T13:56:19.259Z,31.58
2022-12-13T13:58:46.187Z,26.27
2022-12-13T14:01:13.108Z,28.02
2022-12-13T14:03:40.250Z,28.65
2022-12-13T14:06:07.346Z,25.73
2022-12-13T14:08:34.250Z,27.15
2022-12-13T14:11:01.132Z,28.92
2022-12-13T14:13:28.489Z,26.40
2022-12-13T14:15:55.631Z,30.13
2022-12-13T14:18:22.577Z,29.20
2022-12-13T14:20:49.482Z,32.13
2022-12-13T14:23:21.603Z,29.42
2022-12-13T14:25:52.364Z,30.83
2022-12-13T14:28:19.413Z,29.97
2022-12-13T14:30:57.034Z,31.90
2022-12-13T14:33:24.831Z,29.08
2022-12-13T14:35:52.075Z,31.35
2022-12-13T14:38:19.024Z,29.85
2022-12-13T14:40:45.927Z,30.08
2022-12-13T14:43:23.904Z,29.83
2022-12-13T14:45:51.305Z,30.45
2022-12-13T14:48:28.254Z,30.45
2022-12-13T14:50:56.532Z,27.70
2022-12-13T14:53:23.697Z,29.90
2022-12-13T14:55:50.969Z,29.50
2022-12-13T14:58:17.903Z,29.27
2022-12-13T15:00:44.887Z,31.65
2022-12-13T15:03:11.810Z,28.50
2022-12-13T15:05:38.713Z,27.98
2022-12-13T15:08:10.606Z,29.52
2022-12-13T15:10:38.297Z,29.13
2022-12-13T15:13:05.184Z,29.42
2022-12-13T15:15:32.071Z,29.08
2022-12-13T15:17:58.970Z,30.77
2022-12-13T15:20:25.924Z,33.05
2022-12-13T15:22:52.852Z,28.45
2022-12-13T15:25:19.772Z,30.83
2022-12-13T15:27:48.406Z,30.70
2022-12-13T15:30:15.688Z,32.25
2022-12-13T15:32:42.575Z,29.08
2022-12-13T15:35:10.492Z,30.88
2022-12-13T15:37:37.372Z,29.70
2022-12-13T15:40:04.299Z,30.13
2022-12-13T15:42:31.460Z,32.63
2022-12-13T15:44:58.396Z,31.05
2022-12-13T15:47:28.425Z,31.20
2022-12-13T15:49:55.919Z,30.67
2022-12-13T15:52:22.811Z,32.20
2022-12-13T15:54:49.693Z,30.30
2022-12-13T15:57:16.635Z,31.98
2022-12-13T15:59:43.515Z,29.55
2022-12-13T16:02:10.434Z,29.10
2022-12-13T16:04:37.369Z,30.70
2022-12-13T16:07:04.293Z,31.77
2022-12-13T16:09:31.185Z,31.38
2022-12-13T16:11:58.087Z,30.45
2022-12-13T16:14:25.758Z,28.00
2022-12-13T16:16:53.649Z,32.80
2022-12-13T16:19:20.607Z,35.08
2022-12-13T16:21:47.548Z,30.45
2022-12-13T16:24:14.440Z,31.42
2022-12-13T16:26:41.329Z,28.55
2022-12-13T16:29:08.207Z,31.60
2022-12-13T16:31:35.149Z,31.15
2022-12-13T16:34:02.086Z,33.45
2022-12-13T16:36:29.167Z,31.17
2022-12-13T16:38:56.121Z,31.88
2022-12-13T16:41:22.996Z,30.63
2022-12-13T16:43:49.887Z,32.97
2022-12-13T16:47:14.234Z,35.60
2022-12-13T16:49:03.654Z,36.92
2022-12-13T16:51:30.582Z,32.97
2022-12-13T16:53:57.470Z,34.67
2022-12-13T16:56:24.369Z,34.53
2022-12-13T16:58:51.400Z,34.78
2022-12-13T17:04:17.906Z,35.90
2022-12-13T17:06:46.782Z,34.95
2022-12-13T17:09:13.697Z,35.00
2022-12-13T17:11:40.580Z,32.53
2022-12-13T17:14:07.470Z,34.92
2022-12-13T17:16:34.414Z,37.45
2022-12-13T17:19:01.505Z,32.95
2022-12-13T17:21:28.401Z,32.88
2022-12-13T17:23:55.282Z,32.55
2022-12-13T17:26:22.164Z,36.67
2022-12-13T17:28:49.043Z,36.38
2022-12-13T17:31:15.980Z,35.45
2022-12-13T17:33:42.894Z,34.47
2022-12-13T17:36:09.810Z,33.72
2022-12-13T17:38:36.754Z,33.40
2022-12-13T17:41:03.673Z,36.40
2022-12-13T17:43:34.852Z,39.45
2022-12-13T17:46:02.358Z,36.20
2022-12-13T17:48:34.044Z,32.58
2022-12-13T17:51:04.714Z,35.22
2022-12-13T17:53:31.613Z,33.85
2022-12-13T17:55:58.540Z,35.95
2022-12-13T17:58:25.768Z,30.25
2022-12-13T18:00:52.929Z,34.40
2022-12-13T18:03:19.818Z,32.78
2022-12-13T18:05:46.701Z,31.77
2022-12-13T18:08:13.595Z,31.33
2022-12-13T18:10:40.481Z,31.40
2022-12-13T18:13:07.594Z,35.80
2022-12-13T18:15:34.563Z,34.08
2022-12-13T18:18:11.245Z,35.47
2022-12-13T18:20:38.709Z,34.97
2022-12-13T18:23:05.636Z,33.60
2022-12-13T18:25:32.529Z,31.80
2022-12-13T18:28:01.226Z,34.30
2022-12-13T18:30:28.348Z,35.40
2022-12-13T18:32:55.243Z,35.15
2022-12-13T18:35:22.146Z,32.90
2022-12-13T18:37:49.055Z,33.60
2022-12-13T18:40:15.939Z,34.25
2022-12-13T18:42:42.849Z,35.08
2022-12-13T18:45:09.738Z,33.85
2022-12-13T18:47:36.637Z,31.98
2022-12-13T18:50:03.514Z,34.13
2022-12-13T18:52:30.426Z,34.55
2022-12-13T18:54:57.309Z,33.55
2022-12-13T18:57:24.222Z,35.53
2022-12-13T18:59:54.600Z,38.17
2022-12-13T19:02:21.966Z,34.60
2022-12-13T19:04:55.413Z,35.72
2022-12-13T19:07:22.632Z,34.50
2022-12-13T19:09:54.833Z,37.63
2022-12-13T19:12:22.083Z,35.13
2022-12-13T19:14:54.487Z,38.35
2022-12-13T19:17:22.023Z,36.33
2022-12-13T19:19:48.896Z,35.40
2022-12-13T19:22:15.885Z,40.15
2022-12-13T19:24:42.842Z,38.15
2022-12-13T19:27:09.770Z,38.20
2022-12-13T19:29:36.652Z,36.17
2022-12-13T19:32:03.551Z,36.28
2022-12-13T19:34:30.462Z,41.15
2022-12-13T19:37:00.357Z,35.58
2022-12-13T19:39:31.420Z,40.15
2022-12-13T19:41:58.330Z,39.08
2022-12-13T19:44:25.244Z,40.08
2022-12-13T19:46:52.208Z,39.35
2022-12-13T19:49:20.921Z,38.25
2022-12-13T19:51:47.849Z,37.38
2022-12-13T19:54:14.745Z,43.33
2022-12-13T19:56:41.679Z,34.22
2022-12-13T19:59:10.859Z,37.03
2022-12-13T20:01:37.808Z,38.15
2022-12-13T20:04:04.957Z,41.33
2022-12-13T20:06:31.855Z,43.35
2022-12-13T20:08:58.740Z,40.90
2022-12-13T20:11:25.647Z,41.70
2022-12-13T20:13:52.520Z,40.67
2022-12-13T20:16:19.461Z,39.85
2022-12-13T20:18:46.472Z,38.33
2022-12-13T20:21:14.053Z,40.00
2022-12-13T20:23:41.142Z,36.53
2022-12-13T20:26:08.085Z,38.75
2022-12-13T20:28:34.998Z,40.50
2022-12-13T20:31:01.931Z,39.95
2022-12-13T20:33:29.123Z,39.60
2022-12-13T20:36:23.210Z,42.03
2022-12-13T20:38:43.074Z,40.67
2022-12-13T20:41:11.664Z,36.20
2022-12-13T20:43:38.622Z,45.47
2022-12-13T20:46:05.519Z,41.15
2022-12-13T20:48:32.430Z,38.55
2022-12-13T20:50:59.323Z,38.15
2022-12-13T20:53:26.613Z,40.83
2022-12-13T20:55:53.928Z,42.28
2022-12-13T20:58:20.847Z,38.65
2022-12-13T21:00:47.792Z,44.97
2022-12-13T21:03:14.884Z,39.20
2022-12-13T21:05:41.794Z,39.97
2022-12-13T21:08:08.730Z,39.95
2022-12-13T21:10:35.633Z,44.58
2022-12-13T21:13:02.567Z,44.08
2022-12-13T21:15:31.995Z,44.42
2022-12-13T21:17:58.913Z,41.33
2022-12-13T21:20:25.941Z,42.00
2022-12-13T21:22:53.951Z,40.53
2022-12-13T21:25:20.907Z,39.90
2022-12-13T21:27:48.407Z,39.53
2022-12-13T21:30:15.387Z,40.85
2022-12-13T21:32:42.293Z,39.22
2022-12-13T21:35:09.193Z,37.47
2022-12-13T21:37:36.102Z,39.65
2022-12-13T21:40:02.979Z,40.75
2022-12-13T21:42:29.881Z,41.50
2022-12-13T21:45:02.007Z,41.53
2022-12-13T21:47:29.332Z,42.78
2022-12-13T21:49:56.254Z,41.33
2022-12-13T21:52:23.366Z,43.83
2022-12-13T21:54:52.853Z,39.33
2022-12-13T21:57:26.100Z,39.03
2022-12-13T21:59:52.994Z,42.83
2022-12-13T22:02:20.038Z,42.05
2022-12-13T22:04:47.013Z,39.65
2022-12-13T22:07:14.046Z,39.05
2022-12-13T22:09:40.963Z,37.42
2022-12-13T22:12:09.579Z,39.83
2022-12-13T22:14:36.504Z,39.33
2022-12-13T22:17:03.407Z,40.40
2022-12-13T22:19:30.343Z,41.72
2022-12-13T22:21:59.069Z,37.75
2022-12-13T22:24:26.032Z,40.30
2022-12-13T22:26:52.915Z,41.40
2022-12-13T22:29:19.997Z,40.67
2022-12-13T22:31:49.032Z,36.47
2022-12-13T22:34:26.457Z,40.58
2022-12-13T22:36:53.382Z,36.15
2022-12-13T22:39:20.441Z,36.97
2022-12-13T22:41:47.526Z,38.13
2022-12-13T22:44:21.719Z,37.75
2022-12-13T22:46:48.974Z,37.35
2022-12-13T22:49:15.903Z,36.08
2022-12-13T22:51:42.862Z,34.90
2022-12-13T22:54:09.832Z,35.15
2022-12-13T22:56:42.744Z,36.85
2022-12-13T23:02:04.935Z,36.92
2022-12-13T23:07:01.636Z,38.97
2022-12-13T23:09:36.130Z,37.60
2022-12-13T23:12:26.102Z,38.45
2022-12-13T23:14:51.198Z,37.03
2022-12-13T23:17:18.109Z,37.47
2022-12-13T23:22:29.582Z,35.03
2022-12-13T23:24:56.480Z,34.45
2022-12-13T23:27:24.058Z,36.40
2022-12-13T23:32:33.378Z,35.17
2022-12-13T23:35:00.292Z,38.92
2022-12-13T23:37:27.723Z,35.20
2022-12-13T23:39:54.894Z,37.50
2022-12-13T23:42:21.814Z,40.25
2022-12-13T23:44:48.948Z,35.53
2022-12-13T23:47:15.870Z,36.65
2022-12-13T23:49:42.795Z,33.95
2022-12-13T23:52:09.727Z,33.40
2022-12-13T23:54:36.675Z,37.92
2022-12-13T23:57:04.008Z,35.08
2022-12-13T23:59:30.943Z,34.65
